Time;durP1;ratioP1;P1;durP2;ratioP2;P2;SDS_P1;SDS_P2;PMS_P1;PMS_P2;Temp;Humidity;BMP_temperature;BMP_pressure;BME280_temperature;BME280_humidity;BME280_pressure;Samples;Min_cycle;Max_cycle;Signal;HPM_P1;HPM_P2
2021/07/01 00:01:07;;;;;;;20.15;13.43;;;;;;;24.83;66.43;94535.16;4913608;29;20046;-77
2021/07/01 00:03:33;;;;;;;20.55;12.43;;;;;;;24.73;67.06;94533.72;4915252;29;20039;-77
2021/07/01 00:06:00;;;;;;;24.55;13.02;;;;;;;24.70;66.95;94534.34;4933644;29;20047;-77
2021/07/01 00:08:26;;;;;;;16.23;12.35;;;;;;;24.72;67.02;94536.66;4916590;29;20043;-77
2021/07/01 00:10:51;;;;;;;22.73;12.70;;;;;;;24.71;67.07;94529.78;4916539;29;20079;-77
2021/07/01 00:13:17;;;;;;;22.83;12.60;;;;;;;24.67;67.24;94529.69;4934067;29;20090;-77
2021/07/01 00:15:43;;;;;;;15.75;11.80;;;;;;;24.64;67.36;94522.38;4950466;28;20046;-78
2021/07/01 00:18:08;;;;;;;16.02;12.10;;;;;;;24.60;67.32;94539.31;4958833;29;20063;-78
2021/07/01 00:20:34;;;;;;;23.50;12.77;;;;;;;24.58;67.21;94541.50;4942950;29;20543;-78
2021/07/01 00:29:46;;;;;;;27.25;12.82;;;;;;;24.38;68.22;94537.75;4933309;29;20066;-77
2021/07/01 00:32:12;;;;;;;23.20;12.82;;;;;;;24.39;68.01;94540.09;4931967;29;20043;-78
2021/07/01 00:34:37;;;;;;;17.27;11.35;;;;;;;24.40;68.03;94523.03;4931779;29;20075;-77
2021/07/01 00:37:03;;;;;;;17.00;10.98;;;;;;;24.32;68.42;94533.75;4915827;29;20039;-78
2021/07/01 00:39:29;;;;;;;24.10;11.68;;;;;;;24.29;68.17;94529.88;4931893;29;20118;-77
2021/07/01 00:41:54;;;;;;;16.55;11.25;;;;;;;24.27;68.50;94521.41;4931860;29;20035;-77
2021/07/01 00:44:20;;;;;;;20.55;11.40;;;;;;;24.31;68.44;94522.34;4931723;29;20557;-78
2021/07/01 00:46:50;;;;;;;19.77;11.68;;;;;;;24.34;67.99;94526.22;4931765;29;20027;-78
2021/07/01 00:49:16;;;;;;;17.75;11.48;;;;;;;24.37;68.20;94526.34;4916217;29;20036;-78
2021/07/01 00:51:48;;;;;;;20.20;12.40;;;;;;;24.40;68.06;94533.66;4915852;29;20575;-77
2021/07/01 00:54:15;;;;;;;18.25;12.38;;;;;;;24.40;67.57;94524.91;4914781;29;20059;-77
2021/07/01 00:56:49;;;;;;;16.17;11.35;;;;;;;24.39;68.05;94529.44;4932909;29;20036;-77
2021/07/01 00:59:16;;;;;;;14.65;11.13;;;;;;;24.38;67.99;94527.91;4930715;29;20043;-77
2021/07/01 01:01:42;;;;;;;17.73;11.20;;;;;;;24.31;68.07;94525.00;4932691;29;20076;-77
2021/07/01 01:04:08;;;;;;;24.33;11.77;;;;;;;24.28;68.31;94528.28;4931178;29;20050;-77
2021/07/01 01:06:34;;;;;;;15.35;11.57;;;;;;;24.33;68.11;94533.41;4929775;29;20036;-77
2021/07/01 01:08:59;;;;;;;21.02;11.60;;;;;;;24.36;68.07;94535.41;4931397;29;20510;-77
2021/07/01 01:11:27;;;;;;;19.83;11.52;;;;;;;24.38;68.13;94535.88;4932639;29;20039;-77
2021/07/01 01:13:53;;;;;;;19.60;12.30;;;;;;;24.38;67.97;94537.75;4931415;29;20058;-77
2021/07/01 01:16:18;;;;;;;15.63;11.73;;;;;;;24.39;67.43;94534.75;4932240;29;20515;-77
2021/07/01 01:18:45;;;;;;;21.55;12.15;;;;;;;24.38;67.45;94538.53;4915436;29;20038;-77
2021/07/01 01:21:11;;;;;;;15.73;11.63;;;;;;;24.36;67.37;94535.41;4930202;29;20034;-77
2021/07/01 01:23:37;;;;;;;19.05;11.73;;;;;;;24.33;67.26;94530.75;4932349;29;20101;-77
2021/07/01 01:26:03;;;;;;;20.77;12.43;;;;;;;24.31;67.98;94529.53;4915238;29;20495;-77
2021/07/01 01:28:28;;;;;;;22.90;12.63;;;;;;;24.29;67.52;94529.88;4932015;29;20114;-76
2021/07/01 01:30:54;;;;;;;16.77;11.95;;;;;;;24.32;67.71;94534.53;4931541;29;20070;-77
2021/07/01 01:33:20;;;;;;;21.05;12.93;;;;;;;24.26;67.90;94522.50;4931997;29;20040;-77
2021/07/01 01:35:45;;;;;;;29.50;20.02;;;;;;;24.23;68.12;94533.78;4932312;29;20461;-77
2021/07/01 01:38:13;;;;;;;25.13;13.07;;;;;;;24.21;67.85;94533.31;4932282;29;20523;-76
2021/07/01 01:40:39;;;;;;;22.40;16.50;;;;;;;24.17;67.72;94532.41;4930780;29;20090;-77
2021/07/01 01:43:04;;;;;;;17.55;13.35;;;;;;;24.13;68.37;94542.16;4932101;29;20044;-77
2021/07/01 01:45:30;;;;;;;22.55;12.75;;;;;;;24.12;67.92;94551.22;4930633;29;20067;-77
2021/07/01 01:47:56;;;;;;;26.95;12.68;;;;;;;24.11;68.27;94542.47;4930976;29;20044;-77
2021/07/01 01:50:22;;;;;;;19.92;13.32;;;;;;;24.11;68.17;94531.06;4931227;29;20117;-77
2021/07/01 01:52:48;;;;;;;22.95;12.88;;;;;;;24.11;68.13;94541.69;4914268;29;20064;-77
2021/07/01 01:55:14;;;;;;;17.42;12.93;;;;;;;24.10;68.37;94546.22;4930644;29;20035;-77
2021/07/01 01:57:52;;;;;;;29.90;13.50;;;;;;;24.12;68.10;94546.69;4914039;29;20032;-77
2021/07/01 02:00:20;;;;;;;20.75;12.90;;;;;;;24.09;68.20;94541.25;4930277;29;20047;-77
2021/07/01 02:02:46;;;;;;;16.27;12.68;;;;;;;24.06;68.71;94547.19;4931819;29;20043;-77
2021/07/01 02:05:11;;;;;;;20.80;12.43;;;;;;;24.02;68.17;94549.72;4931850;29;20055;-77
2021/07/01 02:07:37;;;;;;;27.25;13.25;;;;;;;23.97;68.21;94533.19;4930380;29;20028;-77
2021/07/01 02:10:04;;;;;;;26.38;14.00;;;;;;;23.91;68.77;94541.31;4914768;29;20032;-77
2021/07/01 02:12:30;;;;;;;21.80;13.43;;;;;;;23.89;68.82;94546.19;4930331;29;20032;-77
2021/07/01 02:14:56;;;;;;;26.17;13.73;;;;;;;23.84;68.49;94551.69;4930229;29;20051;-77
2021/07/01 02:17:22;;;;;;;28.13;14.27;;;;;;;23.77;68.38;94543.47;4931611;29;20070;-77
2021/07/01 02:19:47;;;;;;;29.48;14.00;;;;;;;23.72;68.69;94548.94;4914772;29;20044;-77
2021/07/01 02:22:26;;;;;;;19.40;13.52;;;;;;;23.68;69.28;94550.69;4931754;29;20043;-77
2021/07/01 02:24:51;;;;;;;17.98;12.75;;;;;;;23.64;69.04;94563.06;4937917;28;20054;-77
2021/07/01 02:27:17;;;;;;;30.33;14.23;;;;;;;23.59;69.20;94564.03;4946991;28;20047;-77
2021/07/01 02:29:42;;;;;;;25.83;14.63;;;;;;;23.58;69.14;94569.63;4931523;29;20054;-77
2021/07/01 02:32:08;;;;;;;24.35;13.30;;;;;;;23.55;69.32;94564.94;4931516;29;20044;-77
2021/07/01 02:34:39;;;;;;;18.02;13.75;;;;;;;23.52;69.31;94570.88;4930216;29;20090;-77
2021/07/01 02:37:06;;;;;;;22.30;14.05;;;;;;;23.49;68.97;94571.53;4915282;29;20052;-78
2021/07/01 02:39:39;;;;;;;23.77;13.63;;;;;;;23.45;69.27;94571.38;4897940;29;20094;-78
2021/07/01 02:42:15;;;;;;;36.90;14.13;;;;;;;23.43;69.62;94578.09;4929742;29;20047;-77
2021/07/01 02:44:40;;;;;;;21.63;13.65;;;;;;;23.40;69.29;94578.72;4904923;29;20047;-77
2021/07/01 02:47:06;;;;;;;35.97;12.75;;;;;;;23.41;69.06;94582.94;4930523;29;20028;-77
2021/07/01 02:49:32;;;;;;;21.08;13.77;;;;;;;23.40;69.40;94584.03;4931338;29;20126;-76
2021/07/01 02:51:57;;;;;;;22.92;14.05;;;;;;;23.40;69.44;94599.94;4930478;29;20043;-78
2021/07/01 02:54:23;;;;;;;26.55;13.63;;;;;;;23.38;69.87;94592.31;4931472;29;20094;-77
2021/07/01 02:56:48;;;;;;;24.35;13.80;;;;;;;23.42;69.62;94597.75;4931442;29;20094;-77
2021/07/01 02:59:15;;;;;;;29.77;13.07;;;;;;;23.42;69.62;94592.44;4931577;29;20051;-78
2021/07/01 03:01:44;;;;;;;25.00;13.82;;;;;;;23.41;69.62;94594.31;4905194;29;20047;-77
2021/07/01 03:04:10;;;;;;;20.55;13.40;;;;;;;23.44;69.70;94600.91;4935047;29;20425;-77
2021/07/01 03:06:35;;;;;;;18.40;14.05;;;;;;;23.47;69.26;94610.88;4930969;29;20043;-77
2021/07/01 03:09:01;;;;;;;23.38;13.63;;;;;;;23.47;69.46;94608.22;4930119;29;20487;-78
2021/07/01 03:11:27;;;;;;;30.30;14.07;;;;;;;23.48;69.04;94612.44;4921785;29;20036;-77
2021/07/01 03:13:52;;;;;;;28.52;12.85;;;;;;;23.49;68.67;94613.97;4913908;29;20051;-78
2021/07/01 03:16:21;;;;;;;27.48;14.50;;;;;;;23.52;68.77;94618.66;4930252;29;20043;-77
2021/07/01 03:18:47;;;;;;;24.10;13.10;;;;;;;23.59;68.56;94618.97;4929818;29;20526;-77
2021/07/01 03:21:14;;;;;;;22.45;13.38;;;;;;;23.66;68.55;94616.59;4929606;29;20035;-77
2021/07/01 03:23:39;;;;;;;41.42;14.27;;;;;;;23.75;68.28;94617.31;4931272;29;20183;-77
2021/07/01 03:26:05;;;;;;;26.95;14.38;;;;;;;23.84;67.69;94622.63;4913870;29;20051;-78
2021/07/01 03:28:30;;;;;;;36.95;13.80;;;;;;;23.96;67.26;94622.72;4930881;29;20511;-77
2021/07/01 03:30:56;;;;;;;30.70;14.43;;;;;;;24.03;66.93;94628.28;4897958;29;20036;-77
2021/07/01 03:33:24;;;;;;;38.53;14.10;;;;;;;24.07;66.83;94634.50;4930192;29;20735;-77
2021/07/01 03:35:50;;;;;;;48.05;14.90;;;;;;;24.17;66.15;94636.03;4929408;29;20039;-77
2021/07/01 03:38:15;;;;;;;30.70;15.13;;;;;;;24.24;66.67;94633.63;4932938;29;20063;-77
2021/07/01 03:40:41;;;;;;;23.17;13.57;;;;;;;24.38;66.30;94634.22;4933128;28;20051;-77
2021/07/01 03:43:15;;;;;;;27.27;14.32;;;;;;;24.57;65.60;94635.63;4933894;29;20551;-76
2021/07/01 03:45:41;;;;;;;29.13;15.80;;;;;;;24.74;64.56;94631.00;4932422;29;20081;-77
2021/07/01 03:48:11;;;;;;;29.02;15.40;;;;;;;24.93;64.22;94633.19;4932674;29;20090;-77
2021/07/01 03:51:04;;;;;;;40.17;15.93;;;;;;;25.16;63.71;94630.19;4934055;29;20051;-77
2021/07/01 03:53:30;;;;;;;31.90;15.18;;;;;;;25.37;62.93;94626.34;4934557;29;20040;-78
2021/07/01 03:55:56;;;;;;;29.25;14.98;;;;;;;25.59;62.12;94614.53;4951686;29;20055;-77
2021/07/01 03:58:21;;;;;;;28.05;15.43;;;;;;;25.85;61.21;94616.88;4926538;29;20074;-77
2021/07/01 04:00:47;;;;;;;30.33;15.55;;;;;;;26.07;60.46;94615.69;4935076;29;20479;-77
2021/07/01 04:03:13;;;;;;;26.60;14.60;;;;;;;26.29;59.63;94607.22;4950261;28;20480;-78
2021/07/01 04:05:38;;;;;;;36.13;15.77;;;;;;;26.63;58.60;94613.94;4935347;29;20082;-77
2021/07/01 04:08:04;;;;;;;28.23;14.85;;;;;;;27.47;56.30;94616.59;4935100;29;20564;-78
2021/07/01 04:10:29;;;;;;;29.85;13.70;;;;;;;28.50;53.20;94599.56;4935249;29;20106;-78
2021/07/01 04:12:55;;;;;;;23.00;13.50;;;;;;;29.64;49.98;94611.69;4919366;29;20032;-78
2021/07/01 04:15:21;;;;;;;24.33;12.50;;;;;;;30.69;46.81;94603.69;4935540;29;20039;-78
2021/07/01 04:17:57;;;;;;;28.48;12.65;;;;;;;31.66;45.03;94610.88;4932873;29;20127;-79
2021/07/01 04:20:22;;;;;;;26.95;11.30;;;;;;;32.70;42.46;94601.63;4918200;29;20328;-78
2021/07/01 04:22:48;;;;;;;21.05;11.20;;;;;;;33.61;40.15;94597.69;4932637;29;20044;-78
2021/07/01 04:25:19;;;;;;;27.42;11.07;;;;;;;34.48;38.22;94597.28;4932499;29;20627;-78
2021/07/01 04:27:48;;;;;;;;;;;;;;;35.13;36.61;94601.31;4935612;29;20035;-78
2021/07/01 04:30:14;;;;;;;21.02;9.68;;;;;;;35.88;35.58;94594.69;4935908;29;19918;-78
2021/07/01 04:32:40;;;;;;;29.92;9.77;;;;;;;36.60;34.54;94599.03;4935256;29;20050;-78
2021/07/01 04:35:05;;;;;;;24.08;10.10;;;;;;;37.36;32.78;94590.81;4936688;29;20032;-80
2021/07/01 04:37:31;;;;;;;26.33;10.00;;;;;;;37.98;31.03;94592.97;4935981;29;20103;-79
2021/07/01 04:40:00;;;;;;;30.45;9.63;;;;;;;38.46;30.74;94601.88;4919590;29;20098;-83
2021/07/01 04:42:26;;;;;;;26.45;9.80;;;;;;;39.11;29.96;94592.09;4942811;29;20096;-77
2021/07/01 04:44:51;;;;;;;28.42;9.10;;;;;;;39.59;29.07;94599.59;4916470;29;20491;-80
2021/07/01 04:47:17;;;;;;;21.92;9.05;;;;;;;40.07;28.10;94595.38;4933208;29;20042;-77
2021/07/01 04:49:43;;;;;;;20.05;8.43;;;;;;;40.76;27.32;94603.31;4932390;29;20144;-76
2021/07/01 04:52:08;;;;;;;22.50;8.00;;;;;;;41.37;26.47;94605.91;4940308;29;20050;-77
2021/07/01 04:54:34;;;;;;;27.13;8.52;;;;;;;41.95;25.47;94599.44;4931969;29;20050;-77
2021/07/01 04:56:59;;;;;;;27.05;8.77;;;;;;;42.49;24.97;94601.97;4939220;29;20031;-78
2021/07/01 04:59:25;;;;;;;26.38;9.43;;;;;;;43.03;24.00;94609.06;4933297;29;20044;-78
2021/07/01 05:01:51;;;;;;;18.35;8.02;;;;;;;43.43;23.26;94614.59;4933058;29;20515;-79
2021/07/01 05:04:16;;;;;;;20.05;8.63;;;;;;;43.80;22.52;94614.78;4923256;29;20051;-78
2021/07/01 05:06:47;;;;;;;17.60;8.38;;;;;;;44.10;22.08;94620.66;5202426;23;20511;-78
2021/07/01 05:09:13;;;;;;;;;;;;;;;44.20;21.63;94613.97;4946364;29;20039;-78
2021/07/01 05:15:19;;;;;;;16.15;7.97;;;;;;;44.69;21.39;94615.84;4949753;28;20070;-78
2021/07/01 05:17:45;;;;;;;21.92;8.25;;;;;;;45.05;20.95;94610.34;4929108;29;20077;-80
2021/07/01 05:20:11;;;;;;;23.42;7.70;;;;;;;45.48;20.55;94619.41;4929125;29;20123;-80
2021/07/01 05:22:36;;;;;;;21.60;7.68;;;;;;;45.75;20.33;94616.56;4929090;29;20039;-78
2021/07/01 05:25:03;;;;;;;25.23;7.72;;;;;;;46.06;19.73;94610.78;4930310;29;20044;-79
2021/07/01 05:27:29;;;;;;;16.33;7.40;;;;;;;46.44;19.64;94603.06;4932021;29;20040;-77
2021/07/01 05:29:54;;;;;;;19.00;7.07;;;;;;;46.94;18.73;94607.50;4916719;29;20464;-77
2021/07/01 05:32:20;;;;;;;15.55;6.70;;;;;;;47.41;18.22;94599.56;4909838;29;20040;-77
2021/07/01 05:34:45;;;;;;;21.25;6.70;;;;;;;47.82;17.58;94601.19;4926031;29;20040;-78
2021/07/01 05:37:11;;;;;;;19.75;6.78;;;;;;;48.19;17.80;94599.94;4927385;29;20086;-78
2021/07/01 05:39:37;;;;;;;15.43;8.02;;;;;;;48.20;17.07;94601.47;4925303;29;20028;-76
2021/07/01 05:42:03;;;;;;;25.23;7.50;;;;;;;48.57;17.09;94596.91;4922803;29;20048;-77
2021/07/01 05:44:28;;;;;;;26.70;8.25;;;;;;;48.13;17.03;94597.09;4924015;29;20044;-79
2021/07/01 05:46:54;;;;;;;14.40;7.70;;;;;;;47.92;17.58;94593.59;4924431;29;20032;-77
2021/07/01 05:49:19;;;;;;;17.98;7.78;;;;;;;47.46;18.15;94596.88;4923474;29;20052;-80
2021/07/01 05:51:46;;;;;;;23.30;7.40;;;;;;;47.65;18.02;94588.41;4924469;29;20428;-77
2021/07/01 05:54:21;;;;;;;15.43;7.50;;;;;;;47.89;17.65;94593.78;4926042;29;20080;-80
2021/07/01 05:56:47;;;;;;;20.67;7.70;;;;;;;47.42;18.06;94585.31;4926017;29;20036;-80
2021/07/01 05:59:24;;;;;;;17.85;7.55;;;;;;;47.44;18.06;94588.34;4917555;29;20418;-80
2021/07/01 06:01:50;;;;;;;28.02;8.00;;;;;;;47.44;18.29;94582.81;4925242;29;20088;-80
2021/07/01 06:04:17;;;;;;;26.15;7.95;;;;;;;47.94;17.56;94585.59;4924303;29;20036;-83
2021/07/01 06:06:45;;;;;;;20.05;6.90;;;;;;;48.98;16.86;94592.13;4909155;29;20040;-83
2021/07/01 06:09:11;;;;;;;22.30;7.50;;;;;;;49.83;16.30;94591.53;4938028;29;20031;-83
2021/07/01 06:12:03;;;;;;;29.15;7.95;;;;;;;50.89;14.73;94598.78;4907987;29;20028;-82
2021/07/01 06:14:52;;;;;;;26.95;8.93;;;;;;;50.17;15.50;94595.25;4922950;29;20059;-83
2021/07/01 06:17:18;;;;;;;32.22;8.80;;;;;;;50.38;15.57;94595.84;4926097;29;20059;-83
2021/07/01 06:19:46;;;;;;;19.38;7.75;;;;;;;50.62;15.13;94600.22;4948295;29;20040;-83
2021/07/01 06:22:12;;;;;;;30.75;7.95;;;;;;;49.28;16.14;94597.38;4927351;29;20153;-83
2021/07/01 06:24:37;;;;;;;33.45;8.70;;;;;;;49.09;16.32;94591.44;4925956;29;20059;-82
2021/07/01 06:27:03;;;;;;;28.30;8.27;;;;;;;48.55;16.60;94593.88;4934428;29;20044;-83
2021/07/01 06:29:28;;;;;;;26.98;8.70;;;;;;;49.21;16.53;94589.53;4893822;29;20046;-83
2021/07/01 06:31:54;;;;;;;30.20;7.47;;;;;;;49.71;15.53;94595.47;4926417;29;20063;-82
2021/07/01 06:34:19;;;;;;;19.58;7.05;;;;;;;49.97;15.99;94594.63;4931423;29;20523;-85
2021/07/01 06:36:46;;;;;;;33.25;8.52;;;;;;;50.40;15.38;94596.09;4929796;29;20040;-85
2021/07/01 06:39:35;;;;;;;21.55;7.65;;;;;;;50.93;14.19;94577.88;4926529;29;20055;-85
2021/07/01 06:42:01;;;;;;;26.25;7.32;;;;;;;50.93;15.02;94583.41;4930490;29;20083;-84
2021/07/01 06:44:27;;;;;;;23.98;7.25;;;;;;;51.37;13.99;94590.28;4926364;29;20044;-85
2021/07/01 06:46:52;;;;;;;16.98;7.50;;;;;;;51.42;14.12;94583.22;4923510;29;20047;-85
2021/07/01 06:49:19;;;;;;;25.52;7.82;;;;;;;51.06;14.09;94582.19;4930538;29;20039;-84
2021/07/01 06:51:44;;;;;;;28.58;7.13;;;;;;;51.04;14.14;94585.47;4899124;29;20043;-84
2021/07/01 06:54:18;;;;;;;30.98;7.20;;;;;;;50.53;14.97;94573.50;4944517;29;20035;-84
2021/07/01 06:57:12;;;;;;;29.05;7.07;;;;;;;50.25;15.01;94576.16;4932186;29;20130;-84
2021/07/01 06:59:48;;;;;;;28.98;7.03;;;;;;;50.41;14.61;94561.66;4911882;29;20040;-85
2021/07/01 07:02:18;;;;;;;24.50;7.57;;;;;;;49.84;15.08;94554.34;4894275;29;20032;-85
2021/07/01 07:07:46;;;;;;;22.23;7.85;;;;;;;48.99;15.95;94548.69;4921451;29;20116;-84
2021/07/01 07:10:19;;;;;;;24.48;8.07;;;;;;;48.12;16.90;94541.19;4925255;29;20044;-84
2021/07/01 07:12:54;;;;;;;33.42;7.68;;;;;;;47.56;17.08;94541.69;4953767;28;20039;-83
2021/07/01 07:18:34;;;;;;;31.00;8.35;;;;;;;46.53;18.64;94545.19;4918210;29;20107;-84
2021/07/01 07:21:17;;;;;;;34.70;9.43;;;;;;;45.68;19.12;94547.44;4930162;29;20039;-85
2021/07/01 07:23:44;;;;;;;33.28;9.57;;;;;;;44.36;20.75;94549.88;4921867;29;20508;-84
2021/07/01 07:26:27;;;;;;;27.63;8.60;;;;;;;43.68;21.16;94541.69;4936049;29;20136;-82
2021/07/01 07:29:08;;;;;;;26.90;9.27;;;;;;;42.63;22.59;94537.78;4928297;29;20063;-85
2021/07/01 07:31:50;;;;;;;27.08;9.80;;;;;;;41.91;23.87;94533.25;4928693;29;20067;-85
2021/07/01 07:34:15;;;;;;;29.02;9.82;;;;;;;41.35;24.65;94540.06;4935602;29;20516;-83
2021/07/01 07:36:40;;;;;;;33.40;10.25;;;;;;;40.60;24.88;94543.41;4900031;29;20051;-82
2021/07/01 07:39:06;;;;;;;23.13;9.25;;;;;;;40.35;25.00;94533.16;4942165;28;20026;-84
2021/07/01 07:41:31;;;;;;;30.00;9.57;;;;;;;40.33;25.31;94533.59;4949100;29;20028;-85
2021/07/01 07:43:57;;;;;;;35.08;9.93;;;;;;;39.84;25.97;94533.66;4948764;28;20051;-83
2021/07/01 07:46:25;;;;;;;30.67;9.90;;;;;;;39.40;26.74;94524.22;4913265;29;20504;-84
2021/07/01 07:48:50;;;;;;;22.00;8.82;;;;;;;39.03;27.60;94531.59;4931234;29;20626;-83
2021/07/01 07:51:16;;;;;;;23.50;9.45;;;;;;;39.02;27.59;94534.75;4929060;29;20039;-83
2021/07/01 07:53:43;;;;;;;24.52;9.73;;;;;;;38.79;27.51;94532.16;4909418;29;20427;-82
2021/07/01 07:58:57;;;;;;;26.05;8.88;;;;;;;38.52;28.08;94519.44;5359788;23;20475;-84
2021/07/01 08:01:26;;;;;;;27.23;8.70;;;;;;;37.29;29.12;94512.28;4949730;29;20051;-84
2021/07/01 08:03:53;;;;;;;23.95;9.73;;;;;;;36.97;29.28;94514.22;4914511;29;20079;-85
2021/07/01 08:06:18;;;;;;;44.90;9.65;;;;;;;36.84;29.45;94515.97;4916943;29;20078;-85
2021/07/01 08:08:51;;;;;;;35.92;9.00;;;;;;;36.82;29.39;94512.88;4946774;29;20519;-85
2021/07/01 08:11:17;;;;;;;22.77;8.30;;;;;;;36.65;29.48;94508.44;4939459;29;20031;-85
2021/07/01 08:13:42;;;;;;;29.77;8.00;;;;;;;36.49;29.45;94510.97;4916604;29;20050;-84
2021/07/01 08:16:08;;;;;;;28.38;8.80;;;;;;;36.46;28.73;94509.06;4930807;29;20048;-85
2021/07/01 08:19:01;;;;;;;30.88;8.07;;;;;;;36.59;29.06;94521.66;4956340;28;20046;-85
2021/07/01 08:21:30;;;;;;;31.95;7.75;;;;;;;36.21;29.53;94507.38;4971605;28;20043;-85
2021/07/01 08:23:57;;;;;;;31.83;9.18;;;;;;;35.22;30.81;94513.59;4955587;28;20157;-85
2021/07/01 08:26:22;;;;;;;33.28;9.13;;;;;;;34.63;31.51;94508.13;4957842;28;20122;-85
2021/07/01 08:28:48;;;;;;;30.92;9.23;;;;;;;34.76;31.07;94514.63;4939459;29;20142;-86
2021/07/01 08:31:15;;;;;;;28.08;8.57;;;;;;;34.94;31.19;94503.75;4922817;29;20507;-86
2021/07/01 08:33:42;;;;;;;35.30;8.00;;;;;;;35.22;30.25;94503.56;4957461;28;20138;-86
2021/07/01 08:36:20;;;;;;;30.45;8.43;;;;;;;35.22;30.31;94508.19;4971832;28;20066;-84
2021/07/01 08:38:45;;;;;;;45.28;8.82;;;;;;;35.39;28.76;94507.34;4954808;29;20071;-86
2021/07/01 08:41:27;;;;;;;29.92;7.43;;;;;;;35.24;27.36;94500.47;4957186;28;20435;-86
2021/07/01 08:43:57;;;;;;;45.47;7.57;;;;;;;34.86;27.04;94497.63;4946429;29;20400;-85
2021/07/01 08:46:29;;;;;;;40.80;7.35;;;;;;;34.81;27.56;94490.66;4957661;28;20062;-85
2021/07/01 08:49:37;;;;;;;37.28;7.15;;;;;;;34.95;27.79;94487.13;4957781;29;20451;-86
2021/07/01 08:52:17;;;;;;;31.05;6.97;;;;;;;35.08;25.85;94482.81;4972846;28;20050;-85
2021/07/01 08:54:44;;;;;;;39.60;8.02;;;;;;;34.88;24.98;94474.44;4956092;29;20050;-85
2021/07/01 08:57:58;;;;;;;30.83;7.00;;;;;;;34.95;25.27;94468.22;4927446;29;20507;-83
2021/07/01 09:00:05;;;;;;;45.70;7.75;;;;;;;34.85;25.18;94479.84;4956901;29;20050;-84
2021/07/01 09:02:52;;;;;;;38.65;7.28;;;;;;;34.91;24.82;94467.47;4957709;28;20039;-85
2021/07/01 09:05:18;;;;;;;32.25;7.05;;;;;;;35.03;24.62;94469.72;4958319;28;20051;-84
2021/07/01 09:07:53;;;;;;;31.30;6.28;;;;;;;35.20;26.32;94476.94;4940327;28;20051;-83
2021/07/01 09:10:19;;;;;;;33.70;6.72;;;;;;;35.16;25.76;94476.19;4949808;29;20047;-83
2021/07/01 09:12:51;;;;;;;21.92;6.18;;;;;;;35.22;24.85;94464.94;4956529;28;20086;-83
2021/07/01 09:15:20;;;;;;;35.85;7.25;;;;;;;35.42;24.79;94474.09;4930385;29;20043;-81
2021/07/01 09:17:48;;;;;;;38.63;6.97;;;;;;;35.48;24.91;94472.50;5714497;23;20047;-81
2021/07/01 09:20:19;;;;;;;39.13;7.18;;;;;;;35.59;24.96;94472.41;4954019;29;20123;-81
2021/07/01 09:22:49;;;;;;;35.78;6.97;;;;;;;35.75;24.77;94473.41;4934798;29;20111;-80
2021/07/01 09:25:15;;;;;;;27.73;6.38;;;;;;;35.86;26.27;94464.44;4918962;29;20384;-81
2021/07/01 09:27:57;;;;;;;41.40;6.80;;;;;;;35.93;24.63;94464.34;4918834;29;20654;-81
2021/07/01 09:30:25;;;;;;;34.30;7.60;;;;;;;35.96;23.65;94455.44;4935411;29;20252;-82
2021/07/01 09:33:01;;;;;;;28.27;6.45;;;;;;;36.00;23.36;94456.19;4934726;29;20043;-81
2021/07/01 09:35:28;;;;;;;45.63;6.80;;;;;;;35.94;23.44;94461.25;4934255;29;20063;-81
2021/07/01 09:37:54;;;;;;;29.08;7.32;;;;;;;35.92;24.03;94452.00;4951759;29;20043;-83
2021/07/01 09:40:20;;;;;;;40.13;7.20;;;;;;;35.81;23.82;94451.34;4951595;29;20027;-82
2021/07/01 09:42:54;;;;;;;30.63;7.53;;;;;;;35.61;24.17;94443.78;4936461;29;20051;-81
2021/07/01 09:45:24;;;;;;;51.00;7.88;;;;;;;35.59;24.05;94446.13;4936346;29;20038;-81
2021/07/01 09:48:14;;;;;;;41.95;7.10;;;;;;;35.55;23.27;94439.97;4936134;29;20028;-81
2021/07/01 09:50:45;;;;;;;45.25;6.50;;;;;;;35.47;22.94;94444.69;4924865;29;20071;-80
2021/07/01 09:53:13;;;;;;;;;;;;;;;35.18;23.08;94438.72;4938999;29;20091;-81
2021/07/01 09:55:38;;;;;;;35.75;7.43;;;;;;;34.94;23.70;94431.56;4988480;23;20361;-81
2021/07/01 09:58:07;;;;;;;29.77;5.90;;;;;;;34.89;23.47;94426.59;4956834;28;20046;-81
2021/07/01 10:00:33;;;;;;;44.30;6.80;;;;;;;34.81;23.84;94425.81;4967220;28;20031;-81
2021/07/01 10:03:06;;;;;;;35.95;7.80;;;;;;;34.83;24.04;94420.03;4948070;28;20042;-81
2021/07/01 10:05:31;;;;;;;39.20;7.93;;;;;;;34.94;24.37;94417.28;4948445;28;20038;-83
2021/07/01 10:07:57;;;;;;;32.30;7.40;;;;;;;35.04;25.31;94408.34;4963520;28;20034;-83
2021/07/01 10:10:40;;;;;;;33.08;7.50;;;;;;;35.10;25.14;94407.50;4948982;28;20034;-81
2021/07/01 10:13:06;;;;;;;45.40;7.85;;;;;;;35.09;25.22;94405.19;4965127;28;20047;-83
2021/07/01 10:15:34;;;;;;;39.83;7.78;;;;;;;35.12;24.36;94402.47;4950213;28;20059;-82
2021/07/01 10:18:27;;;;;;;42.05;8.32;;;;;;;35.16;24.47;94403.22;4943618;28;20047;-83
2021/07/01 10:20:54;;;;;;;56.30;8.38;;;;;;;35.05;25.21;94402.53;4960897;28;20051;-80
2021/07/01 10:23:30;;;;;;;33.78;7.43;;;;;;;34.95;24.56;94389.84;4977140;28;20039;-83
2021/07/01 10:25:58;;;;;;;41.13;7.38;;;;;;;34.89;24.99;94386.81;4957296;28;20509;-83
2021/07/01 10:28:24;;;;;;;35.35;6.85;;;;;;;34.85;24.76;94377.19;4949747;28;20039;-83
2021/07/01 10:31:05;;;;;;;38.67;7.03;;;;;;;34.83;25.18;94382.22;4940671;28;20414;-83
2021/07/01 10:33:48;;;;;;;35.67;7.50;;;;;;;34.92;25.17;94377.16;4957723;28;20043;-82
2021/07/01 10:36:15;;;;;;;30.30;7.25;;;;;;;34.87;23.72;94383.75;4940858;28;20034;-80
2021/07/01 10:38:49;;;;;;;30.08;7.30;;;;;;;34.37;24.77;94379.81;4956966;28;20035;-82
2021/07/01 10:41:30;;;;;;;40.42;7.50;;;;;;;34.13;25.10;94365.25;4940901;28;20525;-83
2021/07/01 10:43:56;;;;;;;39.90;7.25;;;;;;;34.03;25.60;94361.47;4957440;28;20539;-83
2021/07/01 10:46:35;;;;;;;36.42;7.65;;;;;;;34.14;26.06;94356.75;4965366;23;20067;-83
2021/07/01 10:49:01;;;;;;;34.95;6.78;;;;;;;34.12;25.51;94350.22;4934595;29;20495;-83
2021/07/01 10:54:22;;;;;;;36.95;7.53;;;;;;;33.83;25.77;94347.63;5094038;23;20110;-81
2021/07/01 10:57:07;;;;;;;29.58;6.65;;;;;;;33.86;27.35;94346.88;4965280;28;20035;-81
2021/07/01 10:59:52;;;;;;;40.30;8.45;;;;;;;33.92;25.44;94345.31;4967167;28;20047;-80
2021/07/01 11:02:23;;;;;;;44.58;8.07;;;;;;;33.97;26.21;94336.03;5032382;23;20131;-83
2021/07/01 11:04:54;;;;;;;53.25;8.05;;;;;;;33.90;26.00;94319.88;4932169;29;20040;-83
2021/07/01 11:07:20;;;;;;;46.22;7.88;;;;;;;33.96;26.77;94318.31;4944390;29;20032;-83
2021/07/01 11:09:47;;;;;;;34.03;6.93;;;;;;;34.08;24.99;94323.25;4903570;29;20036;-83
2021/07/01 11:12:12;;;;;;;31.00;7.30;;;;;;;34.05;24.72;94315.19;4918455;29;20072;-82
2021/07/01 11:14:42;;;;;;;35.03;7.93;;;;;;;33.90;27.04;94315.25;4903919;29;21058;-82
2021/07/01 11:17:08;;;;;;;40.22;7.15;;;;;;;33.38;25.16;94309.66;4904528;29;20119;-82
2021/07/01 11:19:41;;;;;;;42.53;7.28;;;;;;;32.87;26.29;94303.91;4921751;29;20118;-82
2021/07/01 11:22:07;;;;;;;46.60;7.70;;;;;;;32.59;26.27;94302.75;4929271;29;20044;-83
2021/07/01 11:24:32;;;;;;;39.05;8.18;;;;;;;32.43;27.60;94305.06;4902415;29;20639;-79
2021/07/01 11:27:02;;;;;;;44.22;8.45;;;;;;;32.13;27.17;94298.06;4918898;29;20050;-82
2021/07/01 11:29:41;;;;;;;32.67;7.38;;;;;;;32.12;27.65;94299.22;4904715;29;20068;-81
2021/07/01 11:32:15;;;;;;;33.67;7.80;;;;;;;32.30;27.14;94288.50;4929470;29;20064;-79
2021/07/01 11:34:42;;;;;;;31.05;7.15;;;;;;;32.50;27.50;94286.22;4935887;29;20074;-80
2021/07/01 11:37:07;;;;;;;46.85;7.45;;;;;;;32.70;26.39;94283.91;4928308;29;20048;-81
2021/07/01 11:39:33;;;;;;;36.67;8.20;;;;;;;33.03;26.17;94280.84;4901480;29;20099;-81
2021/07/01 11:42:01;;;;;;;41.75;8.95;;;;;;;33.38;26.35;94268.47;4899808;29;20050;-81
2021/07/01 11:44:28;;;;;;;46.22;8.57;;;;;;;33.56;25.37;94263.00;4916373;29;20084;-82
2021/07/01 11:46:53;;;;;;;37.00;7.60;;;;;;;33.56;26.11;94241.44;5216538;23;20089;-81
2021/07/01 11:49:19;;;;;;;47.00;8.52;;;;;;;33.73;25.94;94245.97;4971502;28;20047;-81
2021/07/01 11:51:44;;;;;;;48.75;9.55;;;;;;;33.86;25.46;94249.00;4976581;28;20038;-81